CheckWX is a tool to help pilots better visualize weather data.  It is not intended as a substitute for an official pre-flight weather briefing.

02:50:06 UTC

KCDH METAR
Harrell Field Airport
Camden, Arkansas, USA
Current

15 mins ago

KCDH 020235Z AUTO 13005KT 10SM CLR 16/06 A2999 RMK AO2
Observed
Apr-2 @ 02:35 UTC
Wind
  • 130° at 5 KTS
Visibility
10 SM
Flight Rules
VFR
Cloud Levels
  • Clear skies
Temperature
16°C / 61°F
Dewpoint
C / 43°F
Humidity
52%
Altimeter
29.99" Hg
Pressure
1015.62 hPa
Previous

35 mins ago

KCDH 020215Z AUTO 13005KT 10SM CLR 16/07 A2999 RMK AO2
Observed
Apr-2 @ 02:15 UTC
Wind
  • 130° at 5 KTS
Visibility
10 SM
Flight Rules
VFR
Cloud Levels
  • Clear skies
Temperature
16°C / 61°F
Dewpoint
C / 45°F
Humidity
55%
Altimeter
29.99" Hg
Pressure
1015.62 hPa
Previous

55 mins ago

KCDH 020155Z AUTO 00000KT 10SM CLR 15/08 A2999 RMK AO2
Observed
Apr-2 @ 01:55 UTC
Visibility
10 SM
Flight Rules
VFR
Cloud Levels
  • Clear skies
Temperature
15°C / 59°F
Dewpoint
C / 46°F
Humidity
63%
Altimeter
29.99" Hg
Pressure
1015.62 hPa